createdAt,value
2024-02-02T00:01:54.762Z,0.40
2024-02-02T00:04:22.931Z,0.33
2024-02-02T00:06:51.156Z,0.70
2024-02-02T00:09:20.940Z,0.57
2024-02-02T00:11:49.151Z,0.50
2024-02-02T00:14:17.379Z,0.40
2024-02-02T00:16:45.456Z,0.40
2024-02-02T00:19:13.652Z,0.40
2024-02-02T00:21:41.799Z,0.50
2024-02-02T00:24:10.183Z,0.60
2024-02-02T00:26:39.737Z,0.50
2024-02-02T00:29:07.838Z,0.60
2024-02-02T00:31:35.956Z,0.67
2024-02-02T00:34:04.173Z,0.20
2024-02-02T00:36:32.372Z,0.70
2024-02-02T00:38:59.631Z,0.60
2024-02-02T00:41:27.741Z,0.50
2024-02-02T00:43:57.296Z,0.40
2024-02-02T00:46:25.447Z,0.70
2024-02-02T00:48:53.672Z,0.67
2024-02-02T00:51:21.974Z,0.50
2024-02-02T00:53:50.237Z,0.40
2024-02-02T00:56:18.432Z,0.47
2024-02-02T00:58:46.525Z,0.57
2024-02-02T01:01:16.051Z,0.60
2024-02-02T01:03:44.196Z,0.50
2024-02-02T01:06:12.444Z,0.47
2024-02-02T01:08:41.030Z,0.30
2024-02-02T01:11:09.124Z,0.63
2024-02-02T01:13:37.221Z,0.50
2024-02-02T01:16:05.652Z,0.40
2024-02-02T01:18:35.585Z,0.50
2024-02-02T01:21:03.784Z,0.90
2024-02-02T01:23:31.819Z,0.40
2024-02-02T01:25:59.944Z,0.50
2024-02-02T01:28:28.138Z,0.47
2024-02-02T01:30:56.210Z,0.53
2024-02-02T01:33:24.369Z,0.50
2024-02-02T01:35:54.103Z,0.43
2024-02-02T01:38:22.575Z,0.33
2024-02-02T01:40:50.702Z,0.40
2024-02-02T01:43:18.805Z,0.60
2024-02-02T01:45:46.884Z,0.50
2024-02-02T01:48:15.436Z,0.40
2024-02-02T01:50:43.604Z,0.43
2024-02-02T01:53:13.221Z,0.37
2024-02-02T01:55:41.437Z,0.30
2024-02-02T01:58:09.615Z,0.50
2024-02-02T02:00:38.442Z,0.33
2024-02-02T02:03:07.378Z,0.30
2024-02-02T02:05:37.102Z,0.30
2024-02-02T02:08:06.886Z,0.60
2024-02-02T02:10:36.426Z,0.57
2024-02-02T02:13:04.743Z,0.90
2024-02-02T02:15:32.936Z,0.60
2024-02-02T02:18:01.289Z,0.80
2024-02-02T02:20:31.812Z,0.30
2024-02-02T02:23:02.079Z,0.60
2024-02-02T02:25:30.555Z,0.63
2024-02-02T02:27:58.744Z,0.50
2024-02-02T02:30:26.827Z,0.47
2024-02-02T02:32:55.060Z,0.30
2024-02-02T02:35:23.210Z,0.40
2024-02-02T02:37:51.314Z,0.70
2024-02-02T02:40:20.857Z,1.03
2024-02-02T02:42:50.268Z,0.70
2024-02-02T02:45:18.566Z,0.70
2024-02-02T02:47:46.767Z,0.70
2024-02-02T02:50:15.099Z,0.80
2024-02-02T02:52:43.156Z,0.63
2024-02-02T02:55:11.641Z,0.80
2024-02-02T02:57:41.179Z,0.53
2024-02-02T03:00:11.446Z,0.70
2024-02-02T03:02:39.593Z,0.70
2024-02-02T03:05:08.952Z,0.50
2024-02-02T03:07:37.183Z,0.97
2024-02-02T03:10:06.058Z,0.47
2024-02-02T03:12:34.230Z,0.90
2024-02-02T03:15:04.507Z,0.50
2024-02-02T03:17:32.857Z,0.60
2024-02-02T03:20:01.204Z,0.60
2024-02-02T03:22:29.414Z,0.70
2024-02-02T03:24:57.551Z,0.60
2024-02-02T03:27:25.668Z,0.60
2024-02-02T03:29:53.906Z,0.73
2024-02-02T03:32:23.386Z,1.07
2024-02-02T03:34:51.483Z,0.60
2024-02-02T03:37:20.986Z,0.90
2024-02-02T03:39:49.084Z,0.53
2024-02-02T03:42:17.342Z,0.80
2024-02-02T03:44:45.465Z,1.00
2024-02-02T03:47:13.628Z,0.77
2024-02-02T03:49:43.116Z,0.70
2024-02-02T03:52:11.322Z,0.83
2024-02-02T03:54:39.483Z,0.80
2024-02-02T03:57:07.626Z,0.80
2024-02-02T03:59:35.720Z,0.70
2024-02-02T04:02:03.874Z,0.60
2024-02-02T04:04:32.912Z,0.80
2024-02-02T04:07:02.606Z,0.50
2024-02-02T04:09:30.850Z,0.60
2024-02-02T04:11:58.976Z,1.00
2024-02-02T04:14:27.197Z,1.10
2024-02-02T04:16:55.265Z,0.50
2024-02-02T04:19:23.603Z,0.90
2024-02-02T04:21:51.879Z,0.67
2024-02-02T04:24:21.456Z,0.60
2024-02-02T04:26:49.598Z,0.83
2024-02-02T04:29:17.672Z,1.13
2024-02-02T04:31:45.724Z,0.70
2024-02-02T04:34:13.946Z,0.83
2024-02-02T04:36:42.596Z,0.67
2024-02-02T04:39:11.004Z,0.70
2024-02-02T04:41:40.510Z,0.87
2024-02-02T04:44:08.606Z,1.63
2024-02-02T04:46:36.676Z,0.77
2024-02-02T04:49:05.176Z,0.93
2024-02-02T04:51:33.529Z,1.00
2024-02-02T04:54:01.691Z,0.93
2024-02-02T04:56:29.893Z,0.90
2024-02-02T04:58:59.327Z,0.90
2024-02-02T05:01:27.422Z,1.00
2024-02-02T05:03:55.585Z,1.10
2024-02-02T05:06:23.831Z,1.00
2024-02-02T05:08:52.012Z,0.90
2024-02-02T05:11:20.110Z,0.67
2024-02-02T05:13:48.213Z,0.77
2024-02-02T05:16:17.707Z,0.60
2024-02-02T05:18:46.142Z,0.87
2024-02-02T05:21:14.274Z,1.10
2024-02-02T05:23:48.694Z,0.73
2024-02-02T05:26:18.103Z,1.17
2024-02-02T05:28:46.552Z,0.97
2024-02-02T05:31:14.639Z,1.20
2024-02-02T05:33:47.364Z,0.90
2024-02-02T05:36:15.946Z,0.87
2024-02-02T05:38:44.137Z,0.93
2024-02-02T05:41:12.219Z,0.70
2024-02-02T05:43:40.366Z,0.90
2024-02-02T05:46:08.523Z,1.27
2024-02-02T05:48:36.979Z,1.23
2024-02-02T05:51:06.958Z,1.00
2024-02-02T05:53:35.072Z,0.80
2024-02-02T05:56:03.173Z,0.90
2024-02-02T05:58:31.246Z,1.30
2024-02-02T06:00:59.375Z,1.03
2024-02-02T06:03:27.610Z,0.77
2024-02-02T06:05:55.965Z,0.90
2024-02-02T06:08:25.521Z,0.80
2024-02-02T06:10:53.620Z,1.90
2024-02-02T06:13:21.710Z,1.00
2024-02-02T06:15:49.907Z,1.07
2024-02-02T06:18:18.410Z,1.07
2024-02-02T06:20:46.609Z,1.00
2024-02-02T06:23:14.703Z,0.93
2024-02-02T06:25:44.305Z,1.20
2024-02-02T06:28:14.914Z,1.17
2024-02-02T06:30:44.007Z,1.10
2024-02-02T06:33:12.768Z,1.00
2024-02-02T06:35:41.079Z,1.10
2024-02-02T06:38:09.165Z,1.00
2024-02-02T06:40:37.232Z,1.00
2024-02-02T06:43:06.796Z,1.13
2024-02-02T06:45:35.311Z,1.17
2024-02-02T06:48:03.775Z,0.90
2024-02-02T06:50:32.410Z,1.03
2024-02-02T06:53:00.462Z,1.03
2024-02-02T06:55:28.568Z,1.37
2024-02-02T06:57:56.741Z,1.10
2024-02-02T07:00:26.355Z,1.77
2024-02-02T07:02:54.686Z,0.87
2024-02-02T07:05:23.352Z,1.10
2024-02-02T07:07:52.062Z,1.03
2024-02-02T07:10:20.558Z,1.17
2024-02-02T07:12:56.166Z,1.80
2024-02-02T07:15:28.764Z,1.13
2024-02-02T07:17:57.122Z,1.63
2024-02-02T07:21:01.935Z,1.40
2024-02-02T07:23:38.898Z,1.37
2024-02-02T07:26:14.505Z,0.93
2024-02-02T07:28:42.845Z,1.50
2024-02-02T07:31:21.966Z,1.83
2024-02-02T07:33:50.510Z,0.90
2024-02-02T07:36:28.723Z,1.23
2024-02-02T07:38:57.552Z,1.53
2024-02-02T07:41:27.559Z,1.40
2024-02-02T07:43:56.695Z,1.40
2024-02-02T07:46:26.258Z,1.40
2024-02-02T07:48:55.306Z,1.70
2024-02-02T07:51:26.058Z,1.70
2024-02-02T07:53:55.273Z,1.37
2024-02-02T07:56:25.725Z,1.30
2024-02-02T07:58:53.979Z,1.50
2024-02-02T08:01:23.094Z,1.20
2024-02-02T08:03:52.672Z,2.17
2024-02-02T08:06:21.585Z,1.80
2024-02-02T08:08:49.741Z,1.80
2024-02-02T08:11:17.866Z,1.30
2024-02-02T08:13:46.162Z,1.70
2024-02-02T08:16:14.392Z,2.20
2024-02-02T08:18:43.427Z,1.60
2024-02-02T08:21:13.104Z,2.07
2024-02-02T08:23:41.296Z,1.43
2024-02-02T08:26:09.520Z,2.07
2024-02-02T08:28:48.347Z,1.30
2024-02-02T08:31:19.933Z,1.50
2024-02-02T08:33:48.145Z,1.93
2024-02-02T08:36:19.505Z,1.20
2024-02-02T08:38:47.785Z,1.57
2024-02-02T08:41:15.981Z,1.60
2024-02-02T08:43:44.069Z,1.40
2024-02-02T08:46:14.738Z,1.30
2024-02-02T08:48:46.043Z,1.40
2024-02-02T08:51:50.687Z,1.90
2024-02-02T08:54:38.084Z,2.10
2024-02-02T08:57:33.362Z,2.47
2024-02-02T09:00:07.181Z,2.00
2024-02-02T09:03:00.408Z,1.70
2024-02-02T09:05:50.166Z,1.87
2024-02-02T09:08:29.038Z,1.60
2024-02-02T09:11:19.791Z,2.20
2024-02-02T09:13:48.337Z,1.90
2024-02-02T09:16:17.860Z,1.70
2024-02-02T09:18:47.940Z,2.10
2024-02-02T09:21:19.834Z,2.03
2024-02-02T09:23:52.227Z,1.57
2024-02-02T09:26:38.379Z,1.70
2024-02-02T09:29:06.485Z,1.70
2024-02-02T09:31:37.653Z,1.90
2024-02-02T09:34:10.604Z,2.77
2024-02-02T09:36:41.148Z,1.87
2024-02-02T09:39:41.554Z,1.83
2024-02-02T09:42:24.199Z,1.97
2024-02-02T09:44:57.014Z,1.87
2024-02-02T09:47:43.664Z,1.93
2024-02-02T09:50:28.526Z,1.80
2024-02-02T09:53:43.835Z,1.63
2024-02-02T09:56:24.438Z,1.47
2024-02-02T09:58:59.850Z,2.10
2024-02-02T10:01:42.181Z,1.80
2024-02-02T10:04:22.201Z,1.93
2024-02-02T10:07:02.208Z,1.90
2024-02-02T10:09:45.942Z,2.17
2024-02-02T10:12:24.146Z,2.13
2024-02-02T10:15:15.984Z,1.90
2024-02-02T10:18:01.886Z,1.90
2024-02-02T10:20:38.413Z,1.90
2024-02-02T10:23:41.095Z,1.83
2024-02-02T10:26:34.261Z,2.00
2024-02-02T10:29:14.575Z,1.87
2024-02-02T10:31:58.735Z,2.03
2024-02-02T10:34:41.268Z,2.23
2024-02-02T10:37:21.445Z,2.20
2024-02-02T10:40:04.080Z,2.53
2024-02-02T10:42:42.516Z,1.83
2024-02-02T10:45:21.231Z,2.30
2024-02-02T10:48:02.913Z,2.07
2024-02-02T10:50:39.195Z,2.57
2024-02-02T10:53:14.111Z,2.23
2024-02-02T10:55:59.065Z,2.83
2024-02-02T10:58:41.149Z,2.13
2024-02-02T11:01:22.325Z,2.50
2024-02-02T11:03:59.522Z,1.90
2024-02-02T11:06:38.640Z,2.00
2024-02-02T11:09:18.236Z,2.43
2024-02-02T11:11:55.226Z,2.33
2024-02-02T11:14:33.359Z,1.77
2024-02-02T11:17:12.202Z,2.40
2024-02-02T11:19:57.345Z,2.10
2024-02-02T11:22:32.062Z,2.00
2024-02-02T11:25:08.010Z,2.67
2024-02-02T11:27:45.172Z,2.50
2024-02-02T11:30:36.632Z,2.00
2024-02-02T11:33:21.370Z,2.37
2024-02-02T11:36:04.485Z,2.13
2024-02-02T11:38:46.606Z,2.07
2024-02-02T11:41:20.684Z,2.93
2024-02-02T11:43:49.592Z,2.50
2024-02-02T11:46:24.204Z,2.40
2024-02-02T11:49:02.852Z,2.20
2024-02-02T11:51:31.514Z,2.27
2024-02-02T11:54:04.393Z,2.63
2024-02-02T11:56:36.982Z,2.10
2024-02-02T11:59:10.862Z,2.40
2024-02-02T12:01:48.427Z,1.80
2024-02-02T12:04:34.457Z,2.20
2024-02-02T12:07:24.927Z,1.83
2024-02-02T12:09:59.398Z,2.33
2024-02-02T12:12:33.964Z,2.90
2024-02-02T12:15:02.445Z,2.53
2024-02-02T12:17:31.307Z,2.17
2024-02-02T12:20:01.067Z,2.10
2024-02-02T12:22:30.493Z,1.90
2024-02-02T12:24:58.788Z,2.40
2024-02-02T12:27:26.959Z,2.40
2024-02-02T12:29:55.401Z,2.53
2024-02-02T12:32:23.703Z,2.50
2024-02-02T12:34:52.965Z,1.90
2024-02-02T12:37:22.645Z,2.20
2024-02-02T12:39:54.741Z,1.93
2024-02-02T12:42:24.777Z,1.93
2024-02-02T12:44:52.992Z,1.90
2024-02-02T12:47:26.348Z,2.10
2024-02-02T12:49:55.985Z,1.80
2024-02-02T12:52:25.610Z,2.30
2024-02-02T12:54:53.798Z,1.70
2024-02-02T12:57:22.658Z,2.20
2024-02-02T12:59:50.776Z,1.50
2024-02-02T13:02:21.811Z,2.13
2024-02-02T13:04:53.876Z,1.47
2024-02-02T13:07:22.295Z,1.67
2024-02-02T13:09:53.126Z,2.33
2024-02-02T13:12:29.393Z,1.93
2024-02-02T13:15:08.937Z,2.60
2024-02-02T13:17:38.485Z,1.90
2024-02-02T13:20:16.474Z,1.80
2024-02-02T13:22:51.359Z,1.60
2024-02-02T13:25:26.098Z,2.53
2024-02-02T13:27:55.303Z,2.47
2024-02-02T13:30:24.254Z,1.77
2024-02-02T13:32:53.791Z,1.83
2024-02-02T13:35:27.169Z,2.07
2024-02-02T13:37:55.415Z,1.97
2024-02-02T13:40:28.983Z,2.80
2024-02-02T13:42:59.419Z,1.90
2024-02-02T13:45:30.891Z,2.00
2024-02-02T13:48:01.754Z,2.57
2024-02-02T13:50:41.644Z,2.07
2024-02-02T13:53:10.653Z,1.70
2024-02-02T13:55:40.683Z,1.90
2024-02-02T13:58:09.379Z,1.80
2024-02-02T14:00:37.750Z,2.37
2024-02-02T14:03:11.032Z,2.03
2024-02-02T14:05:40.925Z,2.00
2024-02-02T14:08:09.675Z,2.43
2024-02-02T14:10:45.913Z,1.77
2024-02-02T14:13:16.131Z,2.53
2024-02-02T14:15:44.310Z,2.27
2024-02-02T14:18:14.734Z,1.87
2024-02-02T14:20:42.882Z,2.20
2024-02-02T14:23:12.165Z,2.03
2024-02-02T14:25:40.523Z,1.83
2024-02-02T14:28:17.445Z,1.80
2024-02-02T14:30:46.110Z,1.57
2024-02-02T14:33:25.183Z,1.70
2024-02-02T14:35:54.632Z,1.50
2024-02-02T14:38:23.003Z,1.93
2024-02-02T14:40:54.221Z,1.73
2024-02-02T14:43:23.888Z,1.60
2024-02-02T14:45:52.073Z,1.90
2024-02-02T14:48:20.793Z,1.90
2024-02-02T14:50:49.210Z,1.57
2024-02-02T14:53:17.292Z,0.80
2024-02-02T14:55:45.750Z,1.80
2024-02-02T14:58:14.765Z,1.37
2024-02-02T15:00:46.563Z,1.60
2024-02-02T15:03:15.263Z,1.30
2024-02-02T15:05:43.657Z,1.07
2024-02-02T15:08:12.923Z,1.00
2024-02-02T15:10:42.353Z,1.67
2024-02-02T15:13:11.772Z,1.10
2024-02-02T15:15:40.160Z,1.20
2024-02-02T15:18:10.353Z,1.10
2024-02-02T15:20:40.607Z,1.23
2024-02-02T15:23:09.042Z,1.00
2024-02-02T15:25:37.168Z,1.33
2024-02-02T15:28:05.743Z,0.80
2024-02-02T15:30:33.933Z,0.90
2024-02-02T15:33:02.192Z,1.17
2024-02-02T15:35:31.741Z,0.87
2024-02-02T15:37:59.898Z,1.30
2024-02-02T15:40:28.029Z,1.23
2024-02-02T15:42:56.430Z,1.30
2024-02-02T15:45:24.747Z,1.20
2024-02-02T15:47:53.046Z,1.70
2024-02-02T15:50:21.251Z,0.90
2024-02-02T15:52:50.760Z,1.00
2024-02-02T15:55:19.645Z,1.30
2024-02-02T15:57:52.014Z,1.40
2024-02-02T16:00:21.235Z,1.27
2024-02-02T16:02:49.624Z,1.50
2024-02-02T16:05:18.622Z,1.47
2024-02-02T16:07:47.619Z,0.90
2024-02-02T16:10:18.690Z,0.97
2024-02-02T16:12:46.886Z,1.37
2024-02-02T16:15:15.452Z,1.43
2024-02-02T16:17:43.646Z,1.20
2024-02-02T16:20:13.769Z,1.37
2024-02-02T16:22:43.512Z,1.10
2024-02-02T16:25:12.684Z,1.40
2024-02-02T16:27:42.277Z,0.70
2024-02-02T16:30:12.168Z,1.10
2024-02-02T16:32:40.381Z,0.80
2024-02-02T16:35:09.653Z,1.30
2024-02-02T16:37:39.801Z,1.10
2024-02-02T16:40:11.500Z,0.90
2024-02-02T16:42:41.899Z,1.70
2024-02-02T16:45:11.135Z,1.13
2024-02-02T16:47:39.717Z,1.87
2024-02-02T16:50:08.769Z,0.37
2024-02-02T16:52:37.503Z,1.00
2024-02-02T16:55:06.111Z,1.10
2024-02-02T16:57:34.498Z,1.10
2024-02-02T17:00:05.686Z,0.80
2024-02-02T17:02:33.852Z,1.10
2024-02-02T17:05:01.917Z,0.97
2024-02-02T17:07:31.067Z,0.87
2024-02-02T17:09:59.449Z,0.87
2024-02-02T17:12:27.695Z,0.70
2024-02-02T17:14:55.923Z,1.63
2024-02-02T17:17:25.628Z,0.70
2024-02-02T17:19:53.867Z,0.80
2024-02-02T17:22:22.050Z,0.80
2024-02-02T17:24:50.215Z,0.63
2024-02-02T17:27:18.380Z,1.00
2024-02-02T17:29:46.453Z,0.87
2024-02-02T17:32:17.450Z,0.80
2024-02-02T17:34:49.876Z,1.20
2024-02-02T17:37:18.236Z,0.93
2024-02-02T17:39:46.690Z,0.93
2024-02-02T17:42:15.136Z,0.90
2024-02-02T17:44:43.318Z,0.67
2024-02-02T17:47:11.653Z,0.60
2024-02-02T17:49:45.662Z,0.70
2024-02-02T17:52:18.867Z,0.67
2024-02-02T17:54:47.125Z,0.80
2024-02-02T17:57:15.306Z,0.60
2024-02-02T17:59:43.598Z,0.40
2024-02-02T18:02:12.324Z,0.90
2024-02-02T18:04:40.486Z,0.70
2024-02-02T18:07:10.655Z,0.80
2024-02-02T18:09:42.857Z,0.77
2024-02-02T18:12:13.129Z,1.00
2024-02-02T18:14:41.867Z,0.80
2024-02-02T18:17:10.589Z,0.90
2024-02-02T18:19:38.740Z,0.90
2024-02-02T18:22:06.872Z,0.87
2024-02-02T18:24:35.093Z,1.20
2024-02-02T18:27:04.991Z,0.67
2024-02-02T18:29:33.150Z,0.97
2024-02-02T18:32:01.241Z,0.90
2024-02-02T18:34:29.465Z,1.07
2024-02-02T18:36:57.649Z,0.80
2024-02-02T18:39:25.813Z,0.90
2024-02-02T18:41:53.927Z,1.17
2024-02-02T18:44:23.408Z,1.03
2024-02-02T18:46:52.474Z,0.80
2024-02-02T18:49:20.573Z,1.00
2024-02-02T18:51:49.579Z,0.93
2024-02-02T18:54:17.759Z,1.30
2024-02-02T18:56:45.868Z,1.00
2024-02-02T18:59:14.128Z,1.20
2024-02-02T19:01:43.683Z,0.60
2024-02-02T19:04:13.250Z,1.10
2024-02-02T19:06:41.514Z,1.07
2024-02-02T19:09:10.933Z,0.77
2024-02-02T19:11:39.118Z,0.90
2024-02-02T19:14:14.387Z,0.90
2024-02-02T19:16:43.839Z,0.63
2024-02-02T19:19:12.292Z,1.20
2024-02-02T19:21:41.312Z,1.60
2024-02-02T19:24:11.545Z,1.50
2024-02-02T19:26:40.668Z,1.00
2024-02-02T19:29:09.024Z,1.40
2024-02-02T19:31:40.209Z,1.67
2024-02-02T19:34:10.050Z,1.67
2024-02-02T19:36:38.284Z,1.70
2024-02-02T19:39:09.411Z,1.60
2024-02-02T19:41:37.768Z,1.33
2024-02-02T19:44:06.059Z,1.50
2024-02-02T19:46:35.432Z,2.30
2024-02-02T19:49:05.298Z,2.43
2024-02-02T19:51:35.834Z,1.97
2024-02-02T19:54:04.086Z,2.17
2024-02-02T19:56:32.414Z,1.42
2024-02-02T19:59:00.544Z,1.63
2024-02-02T20:01:30.061Z,2.00
2024-02-02T20:03:58.416Z,2.20
2024-02-02T20:06:26.779Z,2.40
2024-02-02T20:08:56.418Z,2.13
2024-02-02T20:11:26.520Z,2.00
2024-02-02T20:13:54.865Z,2.17
2024-02-02T20:16:22.991Z,2.60
2024-02-02T20:18:51.468Z,2.05
2024-02-02T20:21:21.225Z,2.25
2024-02-02T20:23:53.045Z,1.75
2024-02-02T20:26:23.079Z,1.98
2024-02-02T20:28:51.914Z,2.42
2024-02-02T20:31:21.795Z,1.88
2024-02-02T20:33:52.923Z,1.83
2024-02-02T20:36:23.876Z,1.70
2024-02-02T20:38:52.286Z,2.25
2024-02-02T20:41:26.173Z,1.80
2024-02-02T20:43:58.520Z,2.60
2024-02-02T20:46:27.085Z,2.85
2024-02-02T20:48:55.312Z,2.08
2024-02-02T20:51:23.623Z,1.45
2024-02-02T20:53:52.274Z,2.00
2024-02-02T20:56:20.972Z,2.65
2024-02-02T20:58:49.078Z,1.77
2024-02-02T21:01:18.642Z,2.40
2024-02-02T21:03:45.981Z,1.63
2024-02-02T21:06:14.401Z,1.77
2024-02-02T21:08:44.381Z,2.38
2024-02-02T21:11:12.810Z,2.50
2024-02-02T21:13:41.148Z,2.10
2024-02-02T21:16:09.488Z,2.70
2024-02-02T21:18:40.573Z,1.52
2024-02-02T21:21:08.985Z,2.55
2024-02-02T21:23:37.140Z,1.65
2024-02-02T21:26:05.560Z,2.15
2024-02-02T21:28:33.650Z,2.05
2024-02-02T21:31:02.025Z,1.98
2024-02-02T21:33:30.442Z,1.83
2024-02-02T21:36:03.753Z,1.35
2024-02-02T21:38:32.300Z,1.90
2024-02-02T21:41:00.632Z,1.90
2024-02-02T21:43:28.713Z,2.10
2024-02-02T21:45:57.370Z,2.85
2024-02-02T21:48:25.677Z,2.15
2024-02-02T21:50:54.384Z,2.72
2024-02-02T21:53:23.859Z,2.45
2024-02-02T21:55:52.112Z,2.58
2024-02-02T21:58:20.203Z,2.35
2024-02-02T22:00:48.653Z,2.63
2024-02-02T22:03:17.025Z,2.25
2024-02-02T22:05:45.105Z,2.20
2024-02-02T22:08:13.278Z,3.08
2024-02-02T22:10:42.758Z,2.43
2024-02-02T22:13:11.597Z,2.20
2024-02-02T22:15:40.009Z,2.38
2024-02-02T22:18:08.749Z,1.77
2024-02-02T22:20:36.956Z,2.42
2024-02-02T22:23:05.207Z,2.33
2024-02-02T22:25:33.676Z,2.78
2024-02-02T22:30:35.238Z,2.88
2024-02-02T22:33:03.917Z,2.10
2024-02-02T22:35:32.119Z,2.80
2024-02-02T22:38:00.244Z,2.33
2024-02-02T22:40:28.645Z,2.28
2024-02-02T22:42:56.992Z,2.00
2024-02-02T22:45:26.500Z,3.13
2024-02-02T22:47:54.722Z,2.13
2024-02-02T22:50:22.858Z,2.15
2024-02-02T22:52:50.961Z,2.92
2024-02-02T22:55:19.292Z,2.63
2024-02-02T22:57:47.401Z,1.77
2024-02-02T23:00:20.788Z,2.05
2024-02-02T23:02:50.463Z,2.17
2024-02-02T23:05:18.568Z,2.47
2024-02-02T23:07:46.645Z,2.33
2024-02-02T23:10:14.814Z,2.00
2024-02-02T23:12:43.864Z,2.63
2024-02-02T23:15:12.207Z,2.53
2024-02-02T23:17:40.309Z,3.03
2024-02-02T23:20:11.306Z,2.17
2024-02-02T23:22:41.802Z,2.83
2024-02-02T23:25:10.055Z,2.72
2024-02-02T23:27:38.525Z,2.55
2024-02-02T23:30:08.976Z,2.25
2024-02-02T23:32:37.289Z,2.65
2024-02-02T23:35:05.939Z,2.47
2024-02-02T23:37:35.508Z,3.13
2024-02-02T23:40:04.649Z,1.60
2024-02-02T23:42:32.899Z,2.08
2024-02-02T23:45:01.323Z,2.22
2024-02-02T23:47:29.447Z,1.60
2024-02-02T23:49:57.543Z,2.10
2024-02-02T23:52:25.615Z,2.20
2024-02-02T23:54:55.418Z,2.00
2024-02-02T23:57:25.801Z,1.90
2024-02-02T23:59:54.266Z,2.22
